createdAt,value
2022-08-01T00:01:59.117Z,18.83
2022-08-01T00:04:34.712Z,18.86
2022-08-01T00:07:02.918Z,18.66
2022-08-01T00:09:38.725Z,18.58
2022-08-01T00:12:11.878Z,18.54
2022-08-01T00:14:44.328Z,18.37
2022-08-01T00:17:15.390Z,18.41
2022-08-01T00:19:45.865Z,18.35
2022-08-01T00:22:17.075Z,18.30
2022-08-01T00:24:46.428Z,18.36
2022-08-01T00:27:18.520Z,18.40
2022-08-01T00:30:11.506Z,18.40
2022-08-01T00:32:39.136Z,18.43
2022-08-01T00:35:10.338Z,18.40
2022-08-01T00:37:40.258Z,18.40
2022-08-01T00:40:09.600Z,18.40
2022-08-01T00:42:41.634Z,18.41
2022-08-01T00:45:13.749Z,18.39
2022-08-01T00:47:41.989Z,18.33
2022-08-01T00:50:20.280Z,18.33
2022-08-01T00:52:51.649Z,18.32
2022-08-01T00:55:21.081Z,18.18
2022-08-01T00:58:05.274Z,18.28
2022-08-01T01:00:53.625Z,18.15
2022-08-01T01:03:56.308Z,18.32
2022-08-01T01:07:13.837Z,18.25
2022-08-01T01:09:49.113Z,18.21
2022-08-01T01:12:22.827Z,18.19
2022-08-01T01:15:02.789Z,18.20
2022-08-01T01:17:50.066Z,18.20
2022-08-01T01:20:21.708Z,18.08
2022-08-01T01:23:18.945Z,17.92
2022-08-01T01:26:07.437Z,17.84
2022-08-01T01:28:55.338Z,17.83
2022-08-01T01:31:24.422Z,17.78
2022-08-01T01:33:55.427Z,17.82
2022-08-01T01:36:30.749Z,17.75
2022-08-01T01:39:04.960Z,17.67
2022-08-01T01:41:42.888Z,17.81
2022-08-01T01:44:14.475Z,17.74
2022-08-01T01:46:46.285Z,17.79
2022-08-01T01:49:17.746Z,17.75
2022-08-01T01:52:02.813Z,17.78
2022-08-01T01:54:39.553Z,17.91
2022-08-01T01:57:12.694Z,17.91
2022-08-01T01:59:44.184Z,17.91
2022-08-01T02:02:14.816Z,17.97
2022-08-01T02:04:49.760Z,17.92
2022-08-01T02:07:23.145Z,17.94
2022-08-01T02:09:56.199Z,17.93
2022-08-01T02:12:30.273Z,17.89
2022-08-01T02:15:08.500Z,17.87
2022-08-01T02:17:40.564Z,17.88
2022-08-01T02:20:12.563Z,17.89
2022-08-01T02:22:45.153Z,17.92
2022-08-01T02:25:18.939Z,17.83
2022-08-01T02:27:52.831Z,17.80
2022-08-01T02:30:23.097Z,17.71
2022-08-01T02:32:56.585Z,17.67
2022-08-01T02:35:31.536Z,17.77
2022-08-01T02:38:01.456Z,17.67
2022-08-01T02:40:33.930Z,17.60
2022-08-01T02:43:16.046Z,17.64
2022-08-01T02:45:59.371Z,17.54
2022-08-01T02:48:31.246Z,17.67
2022-08-01T02:51:03.355Z,17.66
2022-08-01T02:53:44.728Z,17.63
2022-08-01T02:56:16.184Z,17.63
2022-08-01T02:58:44.983Z,17.61
2022-08-01T03:01:21.566Z,17.63
2022-08-01T03:03:53.324Z,17.66
2022-08-01T03:06:26.412Z,17.64
2022-08-01T03:09:00.465Z,17.68
2022-08-01T03:11:30.816Z,17.70
2022-08-01T03:14:03.362Z,17.73
2022-08-01T03:16:36.339Z,17.78
2022-08-01T03:19:06.487Z,17.80
2022-08-01T03:21:35.691Z,17.84
2022-08-01T03:24:07.956Z,17.89
2022-08-01T03:26:37.605Z,17.83
2022-08-01T03:29:08.807Z,17.84
2022-08-01T03:31:43.947Z,17.99
2022-08-01T03:34:12.337Z,17.92
2022-08-01T03:36:50.161Z,17.86
2022-08-01T03:39:26.571Z,17.99
2022-08-01T03:41:59.857Z,18.01
2022-08-01T03:44:31.300Z,17.85
2022-08-01T03:47:03.017Z,17.83
2022-08-01T03:49:37.450Z,17.79
2022-08-01T03:52:08.560Z,17.86
2022-08-01T03:54:39.250Z,17.90
2022-08-01T03:57:35.731Z,17.89
2022-08-01T04:00:01.430Z,17.92
2022-08-01T04:02:31.606Z,17.92
2022-08-01T04:05:01.744Z,17.99
2022-08-01T04:07:31.337Z,18.05
2022-08-01T04:10:01.391Z,18.01
2022-08-01T04:12:29.795Z,18.04
2022-08-01T04:14:58.095Z,18.13
2022-08-01T04:17:29.012Z,18.18
2022-08-01T04:20:04.446Z,18.35
2022-08-01T04:22:37.255Z,18.38
2022-08-01T04:25:12.491Z,18.52
2022-08-01T04:27:51.152Z,18.57
2022-08-01T04:30:22.496Z,18.60
2022-08-01T04:32:52.897Z,18.65
2022-08-01T04:36:03.994Z,18.68
2022-08-01T04:38:18.202Z,18.70
2022-08-01T04:40:47.667Z,18.77
2022-08-01T04:43:16.097Z,18.87
2022-08-01T04:45:45.987Z,18.86
2022-08-01T04:48:17.666Z,18.85
2022-08-01T04:50:47.802Z,18.98
2022-08-01T04:53:18.609Z,19.06
2022-08-01T04:55:49.178Z,19.15
2022-08-01T04:58:20.782Z,19.25
2022-08-01T05:00:51.492Z,19.35
2022-08-01T05:03:20.165Z,19.42
2022-08-01T05:05:52.105Z,19.51
2022-08-01T05:08:21.936Z,19.58
2022-08-01T05:10:50.437Z,19.77
2022-08-01T05:13:18.980Z,19.94
2022-08-01T05:15:47.603Z,20.10
2022-08-01T05:18:15.947Z,20.34
2022-08-01T05:20:49.045Z,20.60
2022-08-01T05:48:08.908Z,21.73
2022-08-01T05:50:37.308Z,21.83
2022-08-01T05:53:05.806Z,21.86
2022-08-01T05:55:35.675Z,21.73
2022-08-01T05:58:04.209Z,21.64
2022-08-01T06:00:32.629Z,21.76
2022-08-01T06:03:01.208Z,21.80
2022-08-01T06:05:29.628Z,21.91
2022-08-01T06:07:59.337Z,21.92
2022-08-01T06:10:27.821Z,22.00
2022-08-01T06:12:57.838Z,22.21
2022-08-01T06:15:26.219Z,22.06
2022-08-01T06:17:54.660Z,21.91
2022-08-01T06:20:23.095Z,21.82
2022-08-01T06:22:52.840Z,21.70
2022-08-01T06:25:21.633Z,21.88
2022-08-01T06:27:50.828Z,21.95
2022-08-01T06:30:22.319Z,21.95
2022-08-01T06:32:50.700Z,22.08
2022-08-01T06:35:19.220Z,22.23
2022-08-01T06:37:48.093Z,22.47
2022-08-01T06:40:17.529Z,22.70
2022-08-01T06:42:46.958Z,22.80
2022-08-01T06:45:16.170Z,22.82
2022-08-01T06:47:50.590Z,22.57
2022-08-01T06:50:19.572Z,22.35
2022-08-01T06:52:48.147Z,22.45
2022-08-01T06:55:16.898Z,22.64
2022-08-01T06:57:49.460Z,22.51
2022-08-01T07:00:20.076Z,22.31
2022-08-01T07:02:49.988Z,22.39
2022-08-01T07:05:18.458Z,22.74
2022-08-01T07:07:46.787Z,22.48
2022-08-01T07:10:15.267Z,22.59
2022-08-01T07:12:43.637Z,22.80
2022-08-01T07:15:12.947Z,23.15
2022-08-01T07:17:41.976Z,23.22
2022-08-01T07:20:16.542Z,23.24
2022-08-01T07:22:47.617Z,23.36
2022-08-01T07:25:17.147Z,23.63
2022-08-01T07:27:45.934Z,23.41
2022-08-01T07:30:15.109Z,23.22
2022-08-01T07:32:43.518Z,22.97
2022-08-01T07:35:21.677Z,22.59
2022-08-01T07:37:50.037Z,22.90
2022-08-01T07:40:20.099Z,23.25
2022-08-01T07:42:48.681Z,23.97
2022-08-01T07:45:17.464Z,23.77
2022-08-01T07:47:46.590Z,23.63
2022-08-01T07:50:16.527Z,23.40
2022-08-01T07:52:45.035Z,23.35
2022-08-01T07:55:16.588Z,23.40
2022-08-01T07:57:45.357Z,23.61
2022-08-01T08:00:14.919Z,23.64
2022-08-01T08:02:43.512Z,23.85
2022-08-01T08:05:12.848Z,23.94
2022-08-01T08:07:43.155Z,24.33
2022-08-01T08:10:12.164Z,24.27
2022-08-01T08:12:40.619Z,24.18
2022-08-01T08:15:09.901Z,24.01
2022-08-01T08:17:38.333Z,24.14
2022-08-01T08:20:09.280Z,24.67
2022-08-01T08:22:39.022Z,24.89
2022-08-01T08:25:10.477Z,24.91
2022-08-01T08:27:40.644Z,25.43
2022-08-01T08:30:10.238Z,25.13
2022-08-01T08:32:39.010Z,24.92
2022-08-01T08:35:08.368Z,24.66
2022-08-01T08:37:47.413Z,24.49
2022-08-01T08:40:18.692Z,24.49
2022-08-01T08:42:47.591Z,24.67
2022-08-01T08:45:15.957Z,24.48
2022-08-01T08:47:44.697Z,24.33
2022-08-01T08:50:13.345Z,24.38
2022-08-01T08:52:42.347Z,24.64
2022-08-01T08:55:12.100Z,24.68
2022-08-01T08:57:45.075Z,24.76
2022-08-01T09:00:14.548Z,24.83
2022-08-01T09:02:44.887Z,25.43
2022-08-01T09:05:18.921Z,25.77
2022-08-01T09:07:48.083Z,25.58
2022-08-01T09:10:16.540Z,24.90
2022-08-01T09:13:12.113Z,25.26
2022-08-01T09:15:42.236Z,25.49
2022-08-01T09:18:11.116Z,25.74
2022-08-01T09:20:39.679Z,25.79
2022-08-01T09:23:08.068Z,25.43
2022-08-01T09:25:56.766Z,25.20
2022-08-01T09:28:32.357Z,25.58
2022-08-01T09:31:01.246Z,26.17
2022-08-01T09:33:50.713Z,26.42
2022-08-01T09:36:21.217Z,26.15
2022-08-01T09:38:50.888Z,25.91
2022-08-01T09:41:19.948Z,25.57
2022-08-01T09:43:54.358Z,25.77
2022-08-01T09:46:22.886Z,25.99
2022-08-01T09:48:59.417Z,26.09
2022-08-01T09:51:58.851Z,26.37
2022-08-01T09:54:30.995Z,26.12
2022-08-01T09:57:11.436Z,25.64
2022-08-01T09:59:57.953Z,25.31
2022-08-01T10:02:33.048Z,25.14
2022-08-01T10:05:08.420Z,24.90
2022-08-01T10:07:42.992Z,24.81
2022-08-01T10:10:14.652Z,24.64
2022-08-01T10:12:45.402Z,25.12
2022-08-01T10:15:17.804Z,25.75
2022-08-01T10:17:57.370Z,25.83
2022-08-01T10:20:30.994Z,25.66
2022-08-01T10:23:05.794Z,25.77
2022-08-01T10:25:43.012Z,26.25
2022-08-01T10:28:21.379Z,26.28
2022-08-01T10:30:52.076Z,26.37
2022-08-01T10:33:52.440Z,26.49
2022-08-01T10:36:12.924Z,26.89
2022-08-01T10:38:42.138Z,26.86
2022-08-01T10:41:11.315Z,26.43
2022-08-01T10:43:39.841Z,25.85
2022-08-01T10:46:15.470Z,25.41
2022-08-01T10:48:49.671Z,25.30
2022-08-01T10:51:51.100Z,25.67
2022-08-01T10:54:12.899Z,26.35
2022-08-01T10:56:43.170Z,26.55
2022-08-01T10:59:12.126Z,26.40
2022-08-01T11:01:45.249Z,26.48
2022-08-01T11:04:18.414Z,26.24
2022-08-01T11:07:06.013Z,25.92
2022-08-01T11:09:41.920Z,25.50
2022-08-01T11:12:13.549Z,25.31
2022-08-01T11:15:30.023Z,25.24
2022-08-01T11:18:01.928Z,25.52
2022-08-01T11:20:32.799Z,25.96
2022-08-01T11:23:36.151Z,26.94
2022-08-01T11:26:12.905Z,27.27
2022-08-01T11:28:59.441Z,27.78
2022-08-01T11:31:37.295Z,27.99
2022-08-01T11:34:08.395Z,27.96
2022-08-01T11:36:58.094Z,27.85
2022-08-01T11:39:25.318Z,27.65
2022-08-01T11:41:55.790Z,26.84
2022-08-01T11:44:26.962Z,26.58
2022-08-01T11:47:01.425Z,26.51
2022-08-01T11:49:49.650Z,26.48
2022-08-01T11:52:20.453Z,26.49
2022-08-01T11:54:50.503Z,26.49
2022-08-01T11:57:22.924Z,26.81
2022-08-01T12:00:03.646Z,26.84
2022-08-01T12:02:35.237Z,26.58
2022-08-01T12:05:08.633Z,26.51
2022-08-01T12:07:42.038Z,26.49
2022-08-01T12:10:12.002Z,26.55
2022-08-01T12:12:45.910Z,26.89
2022-08-01T12:15:15.607Z,27.13
2022-08-01T12:17:57.412Z,27.08
2022-08-01T12:20:31.600Z,26.92
2022-08-01T12:23:02.309Z,27.24
2022-08-01T12:25:31.098Z,27.80
2022-08-01T12:28:02.883Z,27.88
2022-08-01T12:30:36.572Z,28.29
2022-08-01T12:33:06.540Z,28.30
2022-08-01T12:35:37.726Z,28.31
2022-08-01T12:38:08.597Z,28.81
2022-08-01T12:40:43.326Z,28.65
2022-08-01T12:43:28.110Z,28.57
2022-08-01T12:45:59.685Z,29.09
2022-08-01T12:48:28.724Z,29.40
2022-08-01T12:51:01.694Z,28.97
2022-08-01T12:53:40.220Z,28.07
2022-08-01T12:56:10.937Z,27.72
2022-08-01T12:58:39.458Z,27.58
2022-08-01T13:01:09.427Z,27.60
2022-08-01T13:03:38.397Z,27.43
2022-08-01T13:06:16.473Z,28.29
2022-08-01T13:08:46.282Z,30.46
2022-08-01T13:11:17.574Z,30.97
2022-08-01T13:13:48.591Z,33.08
2022-08-01T13:16:31.131Z,34.82
2022-08-01T13:19:03.342Z,38.11
2022-08-01T13:21:52.270Z,40.36
2022-08-01T13:24:26.899Z,43.06
2022-08-01T13:26:59.950Z,43.23
2022-08-01T13:29:35.447Z,45.19
2022-08-01T13:32:27.872Z,46.08
2022-08-01T13:35:03.640Z,42.85
2022-08-01T13:37:33.551Z,43.97
2022-08-01T13:40:02.004Z,45.52
2022-08-01T13:42:31.711Z,43.49
2022-08-01T13:45:00.390Z,42.09
2022-08-01T13:47:31.678Z,46.63
2022-08-01T13:50:03.477Z,45.49
2022-08-01T13:52:33.889Z,45.80
2022-08-01T13:55:05.153Z,44.14
2022-08-01T13:57:39.766Z,43.95
2022-08-01T14:00:11.049Z,43.33
2022-08-01T14:02:40.373Z,39.65
2022-08-01T14:05:09.361Z,39.50
2022-08-01T14:07:39.017Z,40.75
2022-08-01T14:10:19.961Z,41.49
2022-08-01T14:12:49.054Z,37.40
2022-08-01T14:15:18.224Z,35.46
2022-08-01T14:18:06.271Z,33.51
2022-08-01T14:20:34.782Z,35.81
2022-08-01T14:23:04.575Z,38.08
2022-08-01T14:26:00.634Z,38.01
2022-08-01T14:28:26.643Z,41.15
2022-08-01T14:30:56.597Z,43.78
2022-08-01T14:33:24.964Z,39.46
2022-08-01T14:36:06.234Z,35.24
2022-08-01T14:38:42.847Z,33.69
2022-08-01T14:41:14.975Z,33.32
2022-08-01T14:43:43.294Z,36.53
2022-08-01T14:46:17.143Z,35.77
2022-08-01T14:48:56.405Z,39.22
2022-08-01T14:51:44.964Z,41.19
2022-08-01T14:54:29.283Z,41.45
2022-08-01T14:56:57.784Z,42.06
2022-08-01T14:59:27.586Z,38.79
2022-08-01T15:01:55.907Z,36.20
2022-08-01T15:04:24.227Z,37.92
2022-08-01T15:06:52.480Z,40.59
2022-08-01T15:09:22.202Z,41.52
2022-08-01T15:11:50.409Z,42.74
2022-08-01T15:14:34.968Z,42.40
2022-08-01T15:17:03.169Z,42.11
2022-08-01T15:19:31.729Z,41.70
2022-08-01T15:22:03.225Z,39.26
2022-08-01T15:24:45.752Z,36.40
2022-08-01T15:30:23.463Z,37.42
2022-08-01T15:32:59.173Z,36.69
2022-08-01T15:35:27.417Z,40.03
2022-08-01T15:37:55.737Z,37.38
2022-08-01T15:40:25.588Z,34.80
2022-08-01T15:43:20.835Z,32.97
2022-08-01T15:45:49.361Z,31.67
2022-08-01T15:52:03.815Z,30.80
2022-08-01T15:57:43.738Z,29.71
2022-08-01T16:00:18.989Z,29.16
2022-08-01T16:02:47.415Z,28.95
2022-08-01T16:05:30.509Z,28.80
2022-08-01T16:08:01.742Z,28.78
2022-08-01T16:10:59.585Z,28.76
2022-08-01T16:16:36.008Z,28.92
2022-08-01T16:19:05.453Z,28.82
2022-08-01T16:21:33.727Z,28.71
2022-08-01T16:24:15.427Z,28.53
2022-08-01T16:26:43.679Z,28.28
2022-08-01T16:29:13.318Z,28.04
2022-08-01T16:31:42.667Z,27.65
2022-08-01T16:34:29.987Z,27.30
2022-08-01T16:36:58.810Z,27.34
2022-08-01T16:39:35.135Z,27.28
2022-08-01T16:42:03.525Z,27.33
2022-08-01T16:44:38.166Z,27.24
2022-08-01T16:47:09.939Z,27.11
2022-08-01T16:49:38.526Z,26.96
2022-08-01T16:52:07.526Z,26.76
2022-08-01T16:54:37.539Z,26.78
2022-08-01T16:57:07.730Z,26.26
2022-08-01T16:59:41.367Z,26.13
2022-08-01T17:02:10.614Z,26.13
2022-08-01T17:04:40.945Z,26.13
2022-08-01T17:07:09.614Z,26.19
2022-08-01T17:09:42.968Z,26.21
2022-08-01T17:12:22.073Z,26.22
2022-08-01T17:14:52.268Z,26.08
2022-08-01T17:17:20.968Z,25.88
2022-08-01T17:19:52.979Z,25.78
2022-08-01T17:22:21.406Z,25.60
2022-08-01T17:24:52.450Z,25.58
2022-08-01T17:27:24.892Z,25.48
2022-08-01T17:30:00.466Z,25.32
2022-08-01T17:32:29.348Z,25.20
2022-08-01T17:35:02.034Z,25.23
2022-08-01T17:37:31.497Z,25.18
2022-08-01T17:40:37.542Z,25.13
2022-08-01T17:42:55.373Z,25.03
2022-08-01T17:45:28.366Z,25.00
2022-08-01T17:48:05.200Z,24.97
2022-08-01T17:50:36.680Z,24.96
2022-08-01T17:53:09.787Z,24.90
2022-08-01T17:55:55.333Z,24.85
2022-08-01T17:58:50.341Z,24.77
2022-08-01T18:01:19.344Z,24.65
2022-08-01T18:03:48.141Z,24.57
2022-08-01T18:06:24.933Z,24.48
2022-08-01T18:08:56.710Z,24.40
2022-08-01T18:11:37.395Z,24.35
2022-08-01T18:14:07.553Z,24.31
2022-08-01T18:16:45.013Z,24.29
2022-08-01T18:19:21.497Z,24.26
2022-08-01T18:21:49.975Z,24.12
2022-08-01T18:24:25.073Z,24.10
2022-08-01T18:26:54.545Z,24.01
2022-08-01T18:29:47.513Z,23.93
2022-08-01T18:32:13.517Z,23.79
2022-08-01T18:34:42.276Z,23.55
2022-08-01T18:37:14.816Z,23.48
2022-08-01T18:39:46.123Z,23.45
2022-08-01T18:42:22.129Z,23.39
2022-08-01T18:44:53.109Z,23.31
2022-08-01T18:47:24.760Z,23.24
2022-08-01T18:49:54.753Z,23.18
2022-08-01T18:52:28.494Z,23.11
2022-08-01T18:55:02.096Z,23.06
2022-08-01T18:57:30.317Z,23.07
2022-08-01T18:59:58.980Z,23.05
2022-08-01T19:02:28.637Z,23.00
2022-08-01T19:04:56.915Z,22.99
2022-08-01T19:07:53.615Z,22.94
2022-08-01T19:10:17.196Z,22.86
2022-08-01T19:12:45.663Z,22.91
2022-08-01T19:15:15.100Z,22.83
2022-08-01T19:17:47.283Z,22.78
2022-08-01T19:20:15.552Z,22.83
2022-08-01T19:22:46.830Z,22.82
2022-08-01T19:25:15.717Z,22.81
2022-08-01T19:27:51.164Z,22.68
2022-08-01T19:30:20.486Z,22.61
2022-08-01T19:32:50.254Z,22.60
2022-08-01T19:35:18.787Z,22.64
2022-08-01T19:37:47.882Z,22.55
2022-08-01T19:40:27.353Z,22.36
2022-08-01T19:42:57.212Z,22.38
2022-08-01T19:45:26.705Z,22.36
2022-08-01T19:47:59.474Z,22.31
2022-08-01T19:50:29.700Z,22.30
2022-08-01T19:53:02.452Z,22.19
2022-08-01T19:55:39.024Z,22.14
2022-08-01T19:58:27.471Z,22.08
2022-08-01T20:00:56.781Z,21.95
2022-08-01T20:03:29.426Z,21.90
2022-08-01T20:05:58.327Z,21.91
2022-08-01T20:08:28.525Z,21.89
2022-08-01T20:10:57.720Z,21.93
2022-08-01T20:13:26.464Z,21.88
2022-08-01T20:16:12.267Z,21.96
2022-08-01T20:18:44.995Z,21.94
2022-08-01T20:21:16.444Z,22.07
2022-08-01T20:23:47.725Z,22.05
2022-08-01T20:26:18.325Z,22.01
2022-08-01T20:28:48.840Z,21.99
2022-08-01T20:31:23.995Z,21.89
2022-08-01T20:33:55.516Z,21.78
2022-08-01T20:36:28.490Z,21.76
2022-08-01T20:38:58.343Z,21.87
2022-08-01T20:41:30.017Z,21.79
2022-08-01T20:44:02.177Z,21.80
2022-08-01T20:46:30.909Z,21.67
2022-08-01T20:49:03.337Z,21.63
2022-08-01T20:51:32.046Z,21.50
2022-08-01T20:54:00.649Z,21.36
2022-08-01T20:56:43.530Z,21.23
2022-08-01T20:59:39.473Z,21.17
2022-08-01T21:02:09.648Z,21.20
2022-08-01T21:04:50.049Z,21.01
2022-08-01T21:07:25.637Z,20.94
2022-08-01T21:10:07.734Z,20.86
2022-08-01T21:12:45.088Z,20.74
2022-08-01T21:15:27.770Z,20.66
2022-08-01T21:18:01.114Z,20.57
2022-08-01T21:20:33.263Z,20.47
2022-08-01T21:23:21.114Z,20.32
2022-08-01T21:25:54.510Z,20.30
2022-08-01T21:28:25.786Z,20.21
2022-08-01T21:31:00.128Z,20.11
2022-08-01T21:33:32.609Z,20.00
2022-08-01T21:36:06.631Z,19.92
2022-08-01T21:38:40.638Z,19.72
2022-08-01T21:41:12.601Z,19.77
2022-08-01T21:43:43.878Z,19.72
2022-08-01T21:46:17.317Z,19.62
2022-08-01T21:48:47.747Z,19.66
2022-08-01T21:51:31.145Z,19.60
2022-08-01T21:54:10.151Z,19.57
2022-08-01T21:56:47.960Z,19.61
2022-08-01T21:59:27.500Z,19.49
2022-08-01T22:02:04.347Z,19.59
2022-08-01T22:04:44.621Z,19.30
2022-08-01T22:07:17.055Z,19.26
2022-08-01T22:09:51.648Z,19.38
2022-08-01T22:12:20.682Z,19.08
2022-08-01T22:14:50.731Z,19.13
2022-08-01T22:17:22.796Z,19.07
2022-08-01T22:20:00.597Z,19.03
2022-08-01T22:22:51.567Z,19.02
2022-08-01T22:25:20.327Z,18.95
2022-08-01T22:28:07.749Z,18.89
2022-08-01T22:30:42.145Z,18.88
2022-08-01T22:33:16.657Z,18.91
2022-08-01T22:35:47.663Z,18.92
2022-08-01T22:38:24.690Z,18.73
2022-08-01T22:40:54.561Z,18.91
2022-08-01T22:43:27.838Z,18.83
2022-08-01T22:46:21.291Z,18.79
2022-08-01T22:48:54.049Z,18.59
2022-08-01T22:51:33.921Z,18.82
2022-08-01T22:54:08.410Z,18.65
2022-08-01T22:56:40.417Z,18.68
2022-08-01T22:59:13.806Z,18.53
2022-08-01T23:01:50.511Z,18.49
2022-08-01T23:04:34.697Z,18.48
2022-08-01T23:07:09.296Z,18.47
2022-08-01T23:09:54.086Z,18.48
2022-08-01T23:12:24.796Z,18.43
2022-08-01T23:14:55.640Z,18.36
2022-08-01T23:17:26.971Z,18.44
2022-08-01T23:20:00.446Z,18.44
2022-08-01T23:22:31.496Z,18.31
2022-08-01T23:25:07.070Z,18.26
2022-08-01T23:27:51.689Z,18.14
2022-08-01T23:30:29.730Z,17.99
2022-08-01T23:32:58.173Z,18.03
2022-08-01T23:35:27.220Z,17.99
2022-08-01T23:37:58.602Z,17.92
2022-08-01T23:40:33.645Z,17.93
2022-08-01T23:43:05.750Z,17.96
2022-08-01T23:46:04.532Z,17.88
2022-08-01T23:48:33.545Z,17.84
2022-08-01T23:51:04.347Z,17.74
2022-08-01T23:53:33.913Z,17.72
2022-08-01T23:56:05.930Z,17.67
2022-08-01T23:58:34.192Z,17.71
